Time;durP1;ratioP1;P1;durP2;ratioP2;P2;SDS_P1;SDS_P2;PMS_P1;PMS_P2;Temp;Humidity;BMP_temperature;BMP_pressure;BME280_temperature;BME280_humidity;BME280_pressure;Samples;Min_cycle;Max_cycle;Signal;HPM_P1;HPM_P2
2022/08/23 00:00:48;;;;;;;8.02;7.22;;;;;;;;;;10256103;28;20054;-76
2022/08/23 00:05:48;;;;;;;8.23;7.43;;;;;;;;;;10239357;28;20060;-74
2022/08/23 00:10:49;;;;;;;8.17;7.47;;;;;;;;;;10238329;28;20282;-75
2022/08/23 00:15:49;;;;;;;9.75;8.40;;;;;;;;;;10237397;29;20845;-76
2022/08/23 00:20:50;;;;;;;8.85;8.05;;;;;;;;;;10237020;28;20047;-77
2022/08/23 00:25:50;;;;;;;8.25;7.55;;;;;;;;;;10223753;28;20039;-77
2022/08/23 00:30:51;;;;;;;8.55;7.85;;;;;;;;;;10237169;28;20815;-77
2022/08/23 00:35:52;;;;;;;9.05;7.80;;;;;;;;;;10201519;28;20047;-77
2022/08/23 00:40:52;;;;;;;8.67;7.87;;;;;;;;;;10236723;28;20043;-77
2022/08/23 00:51:47;;;;;;;8.82;8.13;;;;;;;;;;10209398;28;20066;-79
2022/08/23 00:56:48;;;;;;;9.33;8.40;;;;;;;;;;10236130;28;20075;-76
2022/08/23 01:01:49;;;;;;;9.55;8.65;;;;;;;;;;10235731;28;20146;-77
2022/08/23 01:06:54;;;;;;;9.43;8.45;;;;;;;;;;10206289;28;20050;-76
2022/08/23 01:12:07;;;;;;;8.75;7.88;;;;;;;;;;10216471;29;20102;-76
2022/08/23 01:17:11;;;;;;;9.23;8.40;;;;;;;;;;10217203;29;20185;-77
2022/08/23 01:22:15;;;;;;;10.48;8.70;;;;;;;;;;10238757;28;20039;-76
2022/08/23 01:27:16;;;;;;;8.65;8.02;;;;;;;;;;10235803;28;20083;-77
2022/08/23 01:32:17;;;;;;;8.88;8.07;;;;;;;;;;10209315;28;20047;-76
2022/08/23 01:37:18;;;;;;;9.52;8.73;;;;;;;;;;10227819;28;20090;-75
2022/08/23 01:42:19;;;;;;;9.48;8.57;;;;;;;;;;10227778;28;20470;-76
2022/08/23 01:47:19;;;;;;;9.50;8.25;;;;;;;;;;10239379;28;20031;-77
2022/08/23 01:52:20;;;;;;;9.43;8.57;;;;;;;;;;10197717;29;20486;-78
2022/08/23 01:57:20;;;;;;;10.10;8.88;;;;;;;;;;10243317;28;20039;-75
2022/08/23 02:02:21;;;;;;;7.97;7.15;;;;;;;;;;10227887;28;20040;-75
2022/08/23 02:07:25;;;;;;;9.37;8.47;;;;;;;;;;10233381;28;20572;-74
2022/08/23 02:12:25;;;;;;;9.43;8.52;;;;;;;;;;10221054;28;20383;-75
2022/08/23 02:17:33;;;;;;;9.90;8.60;;;;;;;;;;10212144;28;20287;-75
2022/08/23 02:22:34;;;;;;;9.18;8.48;;;;;;;;;;10239272;28;20061;-76
2022/08/23 02:27:34;;;;;;;9.00;8.20;;;;;;;;;;10240909;28;20047;-75
2022/08/23 02:32:35;;;;;;;10.23;9.20;;;;;;;;;;10241722;29;20286;-75
2022/08/23 02:37:35;;;;;;;9.73;8.82;;;;;;;;;;10240213;28;20050;-75
2022/08/23 02:42:37;;;;;;;10.45;9.50;;;;;;;;;;10226717;28;20586;-76
2022/08/23 02:47:37;;;;;;;10.23;9.23;;;;;;;;;;10220193;28;20068;-76
2022/08/23 02:52:46;;;;;;;10.70;9.60;;;;;;;;;;10219363;28;20043;-75
2022/08/23 02:57:47;;;;;;;10.10;9.10;;;;;;;;;;10224347;28;20062;-75
2022/08/23 03:02:48;;;;;;;10.00;9.10;;;;;;;;;;10220038;28;20461;-77
2022/08/23 03:07:48;;;;;;;10.67;9.57;;;;;;;;;;10224925;28;20121;-76
2022/08/23 03:12:49;;;;;;;10.50;9.40;;;;;;;;;;10224695;29;20290;-75
2022/08/23 03:17:50;;;;;;;9.88;8.98;;;;;;;;;;10222300;29;20067;-76
2022/08/23 03:22:51;;;;;;;11.40;10.30;;;;;;;;;;10221269;29;20039;-75
2022/08/23 03:27:51;;;;;;;10.25;9.25;;;;;;;;;;10257294;28;20066;-85
2022/08/23 03:32:52;;;;;;;11.52;10.45;;;;;;;;;;10256957;28;20023;-79
2022/08/23 03:37:53;;;;;;;11.52;10.45;;;;;;;;;;10384542;23;20059;-77
2022/08/23 03:42:54;;;;;;;11.30;10.20;;;;;;;;;;10294526;28;20043;-79
2022/08/23 03:47:57;;;;;;;10.10;9.20;;;;;;;;;;10484668;23;20078;-77
2022/08/23 03:52:59;;;;;;;11.65;10.13;;;;;;;;;;10775987;23;20059;-79
2022/08/23 03:57:59;;;;;;;10.45;9.50;;;;;;;;;;10275608;28;20027;-77
2022/08/23 04:03:00;;;;;;;10.65;9.65;;;;;;;;;;10263380;28;20050;-76
2022/08/23 04:08:11;;;;;;;11.40;10.10;;;;;;;;;;10287130;28;20031;-75
2022/08/23 04:13:14;;;;;;;10.23;9.23;;;;;;;;;;10275603;28;20062;-77
2022/08/23 04:18:15;;;;;;;9.90;9.10;;;;;;;;;;10274367;28;20344;-79
2022/08/23 04:23:15;;;;;;;11.10;10.00;;;;;;;;;;10250971;28;20057;-78
2022/08/23 04:28:23;;;;;;;10.85;9.88;;;;;;;;;;10276924;28;20027;-78
2022/08/23 04:33:23;;;;;;;11.60;10.50;;;;;;;;;;10269377;28;20078;-80
2022/08/23 04:38:24;;;;;;;10.45;9.55;;;;;;;;;;10243021;28;20038;-80
2022/08/23 04:43:24;;;;;;;10.77;9.68;;;;;;;;;;10222094;29;20056;-80
2022/08/23 04:48:25;;;;;;;10.80;9.77;;;;;;;;;;10217930;28;20419;-81
2022/08/23 04:53:28;;;;;;;10.77;9.77;;;;;;;;;;10213612;29;20298;-74
2022/08/23 04:58:49;;;;;;;11.13;10.05;;;;;;;;;;10232577;28;20047;-82
2022/08/23 05:03:50;;;;;;;11.55;10.30;;;;;;;;;;10239910;28;20043;-77
2022/08/23 05:08:50;;;;;;;11.32;10.23;;;;;;;;;;10250568;28;20035;-84
2022/08/23 05:13:52;;;;;;;11.77;10.57;;;;;;;;;;10239690;28;20039;-85
2022/08/23 05:18:55;;;;;;;;;;;;;;;;;;10222567;28;20142;-78
2022/08/23 05:23:55;;;;;;;12.20;10.88;;;;;;;;;;10239977;28;19926;-77
2022/08/23 05:28:58;;;;;;;11.30;10.20;;;;;;;;;;10204204;28;20051;-72
2022/08/23 05:34:07;;;;;;;11.45;10.45;;;;;;;;;;10228062;28;20049;-72
2022/08/23 05:39:24;;;;;;;10.95;9.95;;;;;;;;;;10214068;28;20035;-74
2022/08/23 05:44:24;;;;;;;11.85;10.55;;;;;;;;;;10213550;28;20051;-75
2022/08/23 05:49:25;;;;;;;11.63;10.43;;;;;;;;;;10218937;28;20043;-75
2022/08/23 05:54:26;;;;;;;11.52;10.43;;;;;;;;;;10252662;28;20039;-74
2022/08/23 05:59:47;;;;;;;12.82;10.52;;;;;;;;;;10235193;28;20158;-75
2022/08/23 06:04:47;;;;;;;11.27;10.27;;;;;;;;;;10215365;28;20499;-75
2022/08/23 06:09:48;;;;;;;9.70;8.80;;;;;;;;;;10231686;28;20306;-74
2022/08/23 06:14:48;;;;;;;13.25;11.90;;;;;;;;;;10233993;28;20534;-72
2022/08/23 06:19:49;;;;;;;14.65;10.60;;;;;;;;;;10230883;29;20141;-73
2022/08/23 06:24:59;;;;;;;10.13;9.20;;;;;;;;;;10226136;28;20103;-73
2022/08/23 06:30:15;;;;;;;12.05;10.77;;;;;;;;;;10228383;29;20035;-72
2022/08/23 06:35:18;;;;;;;11.23;10.10;;;;;;;;;;10245049;28;20051;-73
2022/08/23 06:40:29;;;;;;;10.93;9.82;;;;;;;;;;10222929;28;20051;-72
2022/08/23 06:45:50;;;;;;;12.75;10.00;;;;;;;;;;10239554;28;20066;-74
2022/08/23 06:50:50;;;;;;;10.00;9.20;;;;;;;;;;10203623;28;20128;-73
2022/08/23 06:56:03;;;;;;;9.10;8.23;;;;;;;;;;10222330;28;20174;-73
2022/08/23 07:01:28;;;;;;;11.73;9.88;;;;;;;;;;10215678;28;20046;-72
2022/08/23 07:06:37;;;;;;;10.20;9.20;;;;;;;;;;10239876;28;20503;-72
2022/08/23 07:11:38;;;;;;;10.77;9.75;;;;;;;;;;10234328;28;20042;-73
2022/08/23 07:16:42;;;;;;;11.30;9.80;;;;;;;;;;10223975;29;20280;-73
2022/08/23 07:21:44;;;;;;;7.80;7.20;;;;;;;;;;10241139;28;20110;-72
2022/08/23 07:26:46;;;;;;;9.20;8.23;;;;;;;;;;10224250;28;20031;-73
2022/08/23 07:31:52;;;;;;;9.50;8.20;;;;;;;;;;10223033;29;20182;-73
2022/08/23 07:36:53;;;;;;;9.00;8.15;;;;;;;;;;10237422;28;20101;-73
2022/08/23 07:41:53;;;;;;;6.90;6.23;;;;;;;;;;10238475;28;20567;-74
2022/08/23 07:46:55;;;;;;;7.85;6.78;;;;;;;;;;10232388;28;20318;-75
2022/08/23 07:51:57;;;;;;;10.93;8.40;;;;;;;;;;10221241;28;20462;-74
2022/08/23 07:56:58;;;;;;;11.60;7.30;;;;;;;;;;10235280;28;20228;-75
2022/08/23 08:02:24;;;;;;;7.07;6.35;;;;;;;;;;10223079;28;20054;-76
2022/08/23 08:07:27;;;;;;;11.48;6.50;;;;;;;;;;10237499;28;20093;-76
2022/08/23 08:12:32;;;;;;;5.60;4.85;;;;;;;;;;10238490;28;20456;-74
2022/08/23 08:17:38;;;;;;;6.40;4.80;;;;;;;;;;10229040;28;20138;-74
2022/08/23 08:22:50;;;;;;;5.37;4.60;;;;;;;;;;10238787;28;20663;-76
2022/08/23 08:28:26;;;;;;;4.88;4.28;;;;;;;;;;10237729;28;20066;-77
2022/08/23 08:33:27;;;;;;;6.65;5.13;;;;;;;;;;10217793;29;20066;-77
2022/08/23 08:38:28;;;;;;;5.15;4.32;;;;;;;;;;10241591;29;20053;-78
2022/08/23 08:43:40;;;;;;;5.28;3.03;;;;;;;;;;10245022;28;20047;-76
2022/08/23 08:48:43;;;;;;;3.63;2.53;;;;;;;;;;10240899;28;20042;-80
2022/08/23 08:53:47;;;;;;;2.75;2.30;;;;;;;;;;10237756;28;20043;-78
2022/08/23 08:58:49;;;;;;;2.30;1.95;;;;;;;;;;10258602;28;20058;-81
2022/08/23 09:03:51;;;;;;;3.58;2.20;;;;;;;;;;10221551;28;20122;-77
2022/08/23 09:08:52;;;;;;;3.67;2.70;;;;;;;;;;10222817;28;20051;-83
2022/08/23 09:14:25;;;;;;;2.33;2.13;;;;;;;;;;10250725;28;20035;-80
2022/08/23 09:19:25;;;;;;;2.13;1.90;;;;;;;;;;10200268;29;20055;-78
2022/08/23 09:24:26;;;;;;;3.28;1.85;;;;;;;;;;10216450;28;20222;-79
2022/08/23 09:29:49;;;;;;;2.97;2.17;;;;;;;;;;10214069;28;20094;-78
2022/08/23 09:34:50;;;;;;;2.27;1.60;;;;;;;;;;10241697;28;20523;-78
2022/08/23 09:40:11;;;;;;;2.35;1.73;;;;;;;;;;10221037;28;20047;-81
2022/08/23 09:45:33;;;;;;;2.72;2.03;;;;;;;;;;10238781;28;20066;-78
2022/08/23 09:50:39;;;;;;;2.90;1.80;;;;;;;;;;10233722;28;20039;-80
2022/08/23 09:55:50;;;;;;;2.17;1.88;;;;;;;;;;10220888;28;20043;-80
2022/08/23 10:01:01;;;;;;;1.80;1.50;;;;;;;;;;10226527;28;20399;-79
2022/08/23 10:06:02;;;;;;;1.75;1.55;;;;;;;;;;10226219;28;20043;-80
2022/08/23 10:11:14;;;;;;;2.10;1.30;;;;;;;;;;10225493;28;20118;-79
2022/08/23 10:16:37;;;;;;;1.30;1.20;;;;;;;;;;10235506;28;20818;-78
2022/08/23 10:21:53;;;;;;;19.40;12.23;;;;;;;;;;10217662;28;20057;-78
2022/08/23 10:29:35;;;;;;;1.38;1.27;;;;;;;;;;10234199;28;20051;-77
2022/08/23 10:32:46;;;;;;;1.58;1.20;;;;;;;;;;10232035;28;20161;-79
2022/08/23 10:37:50;;;;;;;1.92;1.23;;;;;;;;;;10215948;28;20111;-79
2022/08/23 10:42:59;;;;;;;1.30;1.20;;;;;;;;;;10221313;28;20798;-81
2022/08/23 10:48:06;;;;;;;2.60;1.80;;;;;;;;;;10217992;28;20462;-78
2022/08/23 10:53:13;;;;;;;1.92;1.70;;;;;;;;;;10223999;28;20095;-77
2022/08/23 10:58:17;;;;;;;2.95;1.70;;;;;;;;;;10218937;28;20039;-78
2022/08/23 11:03:24;;;;;;;2.88;1.80;;;;;;;;;;10246447;28;20039;-75
2022/08/23 11:08:42;;;;;;;3.08;2.00;;;;;;;;;;10245611;28;20047;-79
2022/08/23 11:13:50;;;;;;;2.20;1.52;;;;;;;;;;10260369;28;20046;-75
2022/08/23 11:18:51;;;;;;;3.25;2.30;;;;;;;;;;10288289;28;20094;-73
2022/08/23 11:24:01;;;;;;;2.72;1.98;;;;;;;;;;10268169;28;20411;-80
2022/08/23 11:29:06;;;;;;;2.33;1.67;;;;;;;;;;10224362;28;20716;-77
2022/08/23 11:34:23;;;;;;;1.95;1.50;;;;;;;;;;10258346;28;20071;-76
2022/08/23 11:39:50;;;;;;;1.83;1.70;;;;;;;;;;10282053;28;20095;-75
2022/08/23 11:44:52;;;;;;;1.95;1.73;;;;;;;;;;10268484;28;20119;-78
2022/08/23 11:50:09;;;;;;;2.63;2.37;;;;;;;;;;10225376;28;20387;-76
2022/08/23 11:55:20;;;;;;;1.75;1.65;;;;;;;;;;10241249;28;20078;-78
2022/08/23 12:00:43;;;;;;;2.50;2.15;;;;;;;;;;10237201;28;20055;-77
2022/08/23 12:05:49;;;;;;;3.75;1.70;;;;;;;;;;10242475;28;20123;-76
2022/08/23 12:10:50;;;;;;;2.47;1.85;;;;;;;;;;10242601;28;20027;-73
2022/08/23 12:16:10;;;;;;;1.67;1.57;;;;;;;;;;10231079;28;20027;-74
2022/08/23 12:21:31;;;;;;;1.92;1.73;;;;;;;;;;10237220;29;20183;-73
2022/08/23 12:26:41;;;;;;;2.33;1.73;;;;;;;;;;10221192;29;20058;-74
2022/08/23 12:31:50;;;;;;;1.67;1.50;;;;;;;;;;10237476;28;20036;-75
2022/08/23 12:36:53;;;;;;;5.97;1.60;;;;;;;;;;10234897;28;20047;-74
2022/08/23 12:41:57;;;;;;;2.08;1.90;;;;;;;;;;10237738;28;20455;-74
2022/08/23 12:47:07;;;;;;;2.95;1.73;;;;;;;;;;10234379;28;20073;-76
2022/08/23 12:52:10;;;;;;;1.90;1.45;;;;;;;;;;10229056;28;20113;-75
2022/08/23 12:57:16;;;;;;;4.32;1.60;;;;;;;;;;10233814;28;20036;-76
2022/08/23 13:02:24;;;;;;;1.83;1.30;;;;;;;;;;10216017;28;20047;-75
2022/08/23 13:07:25;;;;;;;2.13;1.50;;;;;;;;;;10233434;28;20158;-77
2022/08/23 13:12:26;;;;;;;3.53;1.30;;;;;;;;;;10236718;28;20053;-75
2022/08/23 13:17:27;;;;;;;1.43;1.20;;;;;;;;;;10241047;28;20045;-75
2022/08/23 13:22:28;;;;;;;1.70;1.17;;;;;;;;;;10234006;28;20071;-75
2022/08/23 13:27:33;;;;;;;2.20;1.40;;;;;;;;;;10235745;28;20045;-78
2022/08/23 13:32:33;;;;;;;1.70;1.15;;;;;;;;;;10235974;28;20047;-78
2022/08/23 13:37:34;;;;;;;1.33;1.23;;;;;;;;;;10232728;28;20420;-77
2022/08/23 13:42:43;;;;;;;1.97;1.33;;;;;;;;;;10234486;28;20041;-80
2022/08/23 13:47:54;;;;;;;1.45;1.20;;;;;;;;;;10231160;28;20103;-79
2022/08/23 13:52:55;;;;;;;1.77;0.98;;;;;;;;;;10244394;28;20046;-84
2022/08/23 13:57:56;;;;;;;1.15;1.05;;;;;;;;;;10248928;28;20057;-81
2022/08/23 14:02:56;;;;;;;1.83;1.20;;;;;;;;;;10243943;29;20123;-77
2022/08/23 14:07:57;;;;;;;1.10;1.00;;;;;;;;;;10241952;28;20163;-79
2022/08/23 14:12:58;;;;;;;1.33;1.20;;;;;;;;;;10234847;28;20039;-77
2022/08/23 14:17:58;;;;;;;;;;;;;;;;;;10236775;29;20039;-77
2022/08/23 14:22:59;;;;;;;1.63;1.40;;;;;;;;;;10240032;28;20362;-77
2022/08/23 14:27:59;;;;;;;3.10;1.50;;;;;;;;;;10233937;28;20050;-75
2022/08/23 14:33:01;;;;;;;1.60;1.50;;;;;;;;;;10235730;28;20387;-74
2022/08/23 14:38:01;;;;;;;;;;;;;;;;;;10251113;28;20042;-75
2022/08/23 14:43:03;;;;;;;4.20;1.30;;;;;;;;;;10263887;28;19922;-76
2022/08/23 14:48:04;;;;;;;1.50;1.10;;;;;;;;;;10248134;28;20388;-75
2022/08/23 14:53:05;;;;;;;2.70;2.27;;;;;;;;;;10233139;28;20059;-74
2022/08/23 14:58:06;;;;;;;1.42;1.33;;;;;;;;;;10244871;28;20459;-76
2022/08/23 15:03:08;;;;;;;2.83;1.80;;;;;;;;;;10240931;28;20044;-80
2022/08/23 15:08:08;;;;;;;2.35;1.65;;;;;;;;;;10225200;28;20042;-77
2022/08/23 15:13:09;;;;;;;2.37;1.67;;;;;;;;;;10241149;28;20127;-72
2022/08/23 15:18:09;;;;;;;3.10;1.50;;;;;;;;;;10240327;28;20508;-74
2022/08/23 15:23:10;;;;;;;1.55;1.33;;;;;;;;;;10224764;28;20047;-71
2022/08/23 15:28:13;;;;;;;2.00;1.30;;;;;;;;;;10239990;28;20111;-73
2022/08/23 15:33:13;;;;;;;1.40;1.30;;;;;;;;;;10237583;28;20040;-71
2022/08/23 15:38:15;;;;;;;2.27;1.80;;;;;;;;;;10235069;28;20408;-72
2022/08/23 15:43:15;;;;;;;1.63;1.52;;;;;;;;;;10223041;28;20042;-71
2022/08/23 15:48:21;;;;;;;1.60;1.37;;;;;;;;;;10229797;28;20141;-71
2022/08/23 15:53:22;;;;;;;2.47;1.50;;;;;;;;;;10223938;28;20058;-72
2022/08/23 15:58:24;;;;;;;1.97;1.70;;;;;;;;;;10231654;28;20376;-74
2022/08/23 16:03:25;;;;;;;2.55;1.70;;;;;;;;;;10239373;29;20051;-75
2022/08/23 16:08:33;;;;;;;1.43;1.30;;;;;;;;;;10227966;28;20046;-74
2022/08/23 16:13:33;;;;;;;4.40;1.52;;;;;;;;;;10225524;29;20043;-72
2022/08/23 16:18:34;;;;;;;3.10;2.80;;;;;;;;;;10223957;29;20051;-74
2022/08/23 16:23:34;;;;;;;1.60;1.50;;;;;;;;;;10236576;28;20039;-71
2022/08/23 16:28:35;;;;;;;1.80;1.50;;;;;;;;;;10234380;28;20087;-72
2022/08/23 16:33:35;;;;;;;1.87;1.60;;;;;;;;;;10212742;28;20035;-73
2022/08/23 16:38:36;;;;;;;1.60;1.50;;;;;;;;;;10237161;28;20035;-73
2022/08/23 16:43:38;;;;;;;1.65;1.55;;;;;;;;;;10228618;28;20062;-72
2022/08/23 16:48:38;;;;;;;1.83;1.73;;;;;;;;;;10225286;28;20047;-69
2022/08/23 16:53:39;;;;;;;1.70;1.60;;;;;;;;;;10241802;28;20398;-71
2022/08/23 16:58:40;;;;;;;2.47;1.60;;;;;;;;;;10229654;28;20047;-70
2022/08/23 17:03:41;;;;;;;1.53;1.43;;;;;;;;;;10237147;29;20040;-72
2022/08/23 17:08:42;;;;;;;2.73;1.90;;;;;;;;;;10234653;28;20157;-73
2022/08/23 17:13:42;;;;;;;2.03;1.60;;;;;;;;;;10237896;28;20293;-75
2022/08/23 17:18:45;;;;;;;2.13;1.60;;;;;;;;;;10242120;28;20039;-76
2022/08/23 17:23:45;;;;;;;1.75;1.55;;;;;;;;;;10247792;29;20078;-76
2022/08/23 17:28:46;;;;;;;1.70;1.58;;;;;;;;;;10244574;28;20154;-75
2022/08/23 17:33:46;;;;;;;1.40;1.30;;;;;;;;;;10246503;28;20046;-78
2022/08/23 17:38:46;;;;;;;1.67;1.48;;;;;;;;;;10248596;28;20051;-79
2022/08/23 17:43:47;;;;;;;2.03;1.52;;;;;;;;;;10241131;28;20094;-75
2022/08/23 17:48:47;;;;;;;2.17;1.67;;;;;;;;;;10244989;28;20047;-78
2022/08/23 17:53:48;;;;;;;1.70;1.60;;;;;;;;;;10252468;28;20157;-78
2022/08/23 17:58:48;;;;;;;1.70;1.60;;;;;;;;;;10260756;28;20039;-76
2022/08/23 18:03:48;;;;;;;1.43;1.33;;;;;;;;;;10253335;28;20043;-76
2022/08/23 18:08:49;;;;;;;2.13;1.80;;;;;;;;;;10262757;28;20050;-74
2022/08/23 18:13:49;;;;;;;2.70;2.50;;;;;;;;;;10257734;28;20043;-76
2022/08/23 18:18:50;;;;;;;2.13;1.80;;;;;;;;;;10294108;28;20047;-76
2022/08/23 18:23:54;;;;;;;1.80;1.70;;;;;;;;;;10288850;28;20669;-76
2022/08/23 18:28:54;;;;;;;1.85;1.75;;;;;;;;;;10264531;28;20039;-80
2022/08/23 18:33:55;;;;;;;1.90;1.67;;;;;;;;;;10254809;28;20048;-83
2022/08/23 18:38:55;;;;;;;2.40;1.43;;;;;;;;;;10281509;28;20355;-75
2022/08/23 18:43:56;;;;;;;3.13;2.50;;;;;;;;;;10290923;28;20490;-78
2022/08/23 18:48:58;;;;;;;2.63;2.10;;;;;;;;;;10276953;28;20115;-77
2022/08/23 18:53:58;;;;;;;2.13;1.93;;;;;;;;;;10280870;28;20063;-75
2022/08/23 18:58:59;;;;;;;4.55;4.00;;;;;;;;;;10253172;28;20016;-76
2022/08/23 19:04:00;;;;;;;2.17;1.98;;;;;;;;;;10338011;23;20066;-76
2022/08/23 19:09:01;;;;;;;2.07;1.80;;;;;;;;;;10336222;28;20043;-76
2022/08/23 19:14:02;;;;;;;2.53;2.25;;;;;;;;;;10313279;28;20046;-80
2022/08/23 19:19:03;;;;;;;3.67;2.17;;;;;;;;;;10279530;28;20055;-80
2022/08/23 19:24:04;;;;;;;2.33;2.13;;;;;;;;;;10319155;28;20050;-76
2022/08/23 19:29:06;;;;;;;4.15;2.40;;;;;;;;;;10293403;28;20051;-77
2022/08/23 19:34:06;;;;;;;2.55;2.35;;;;;;;;;;10282580;28;20027;-80
2022/08/23 19:39:09;;;;;;;2.17;2.00;;;;;;;;;;10289969;28;20023;-75
2022/08/23 19:44:10;;;;;;;2.72;2.30;;;;;;;;;;10287692;28;20035;-76
2022/08/23 19:49:11;;;;;;;3.55;2.33;;;;;;;;;;10297725;28;20083;-76
2022/08/23 19:54:14;;;;;;;2.42;2.22;;;;;;;;;;10276995;28;20127;-78
2022/08/23 19:59:18;;;;;;;2.30;2.10;;;;;;;;;;10288277;28;20485;-76
2022/08/23 20:04:19;;;;;;;2.92;2.20;;;;;;;;;;10285912;28;20031;-77
2022/08/23 20:09:21;;;;;;;2.55;2.33;;;;;;;;;;10278789;28;20039;-76
2022/08/23 20:14:22;;;;;;;2.92;2.40;;;;;;;;;;10283227;28;20112;-76
2022/08/23 20:19:25;;;;;;;3.77;3.43;;;;;;;;;;10269774;28;20047;-77
2022/08/23 20:24:26;;;;;;;3.03;2.42;;;;;;;;;;10288162;28;20040;-76
2022/08/23 20:29:27;;;;;;;2.20;2.00;;;;;;;;;;10278906;28;20035;-78
2022/08/23 20:34:27;;;;;;;2.97;2.67;;;;;;;;;;10276741;28;20042;-78
2022/08/23 20:39:27;;;;;;;2.80;2.60;;;;;;;;;;10279073;28;20338;-77
2022/08/23 20:44:28;;;;;;;3.10;2.30;;;;;;;;;;10285745;28;20490;-79
2022/08/23 20:49:29;;;;;;;2.88;2.50;;;;;;;;;;10235961;28;20491;-81
2022/08/23 20:54:29;;;;;;;3.20;2.90;;;;;;;;;;10237915;29;20032;-80
2022/08/23 20:59:30;;;;;;;3.15;2.70;;;;;;;;;;10247932;28;20154;-78
2022/08/23 21:04:30;;;;;;;2.87;2.60;;;;;;;;;;10265363;28;20136;-77
2022/08/23 21:09:31;;;;;;;2.93;2.70;;;;;;;;;;10285179;28;20095;-79
2022/08/23 21:14:31;;;;;;;3.33;3.03;;;;;;;;;;10279651;28;20679;-78
2022/08/23 21:19:32;;;;;;;3.83;2.60;;;;;;;;;;10261864;28;20435;-81
2022/08/23 21:24:32;;;;;;;5.57;2.90;;;;;;;;;;10250102;28;20070;-77
2022/08/23 21:29:33;;;;;;;3.42;3.13;;;;;;;;;;10232612;28;20082;-79
2022/08/23 21:34:33;;;;;;;2.95;2.72;;;;;;;;;;10242472;28;20141;-77
2022/08/23 21:39:36;;;;;;;2.50;2.30;;;;;;;;;;10279736;28;20028;-76
2022/08/23 21:44:37;;;;;;;3.25;2.90;;;;;;;;;;10259361;28;20066;-80
2022/08/23 21:49:37;;;;;;;4.57;2.67;;;;;;;;;;10246189;28;20035;-79
2022/08/23 21:54:38;;;;;;;4.30;2.63;;;;;;;;;;10246535;28;20365;-79
2022/08/23 21:59:40;;;;;;;4.18;2.63;;;;;;;;;;10220220;28;20051;-80
2022/08/23 22:04:40;;;;;;;3.50;3.20;;;;;;;;;;10248168;28;20039;-80
2022/08/23 22:09:41;;;;;;;3.83;3.00;;;;;;;;;;10235296;28;20047;-81
2022/08/23 22:14:41;;;;;;;3.93;3.20;;;;;;;;;;10240247;28;20062;-79
2022/08/23 22:19:41;;;;;;;4.05;3.22;;;;;;;;;;10236814;29;20361;-79
2022/08/23 22:24:42;;;;;;;4.80;3.40;;;;;;;;;;10235692;28;20039;-81
2022/08/23 22:29:42;;;;;;;3.67;3.33;;;;;;;;;;10233701;28;20042;-81
2022/08/23 22:34:43;;;;;;;4.85;3.90;;;;;;;;;;10234710;28;20509;-79
2022/08/23 22:39:44;;;;;;;3.70;3.10;;;;;;;;;;10245387;28;20460;-77
2022/08/23 22:44:45;;;;;;;5.50;3.38;;;;;;;;;;10245830;28;20302;-78
2022/08/23 22:49:45;;;;;;;3.53;3.23;;;;;;;;;;10239443;28;20050;-80
2022/08/23 22:54:45;;;;;;;4.20;3.80;;;;;;;;;;10242333;28;20058;-78
2022/08/23 22:59:46;;;;;;;5.00;3.47;;;;;;;;;;10246031;28;20299;-79
2022/08/23 23:04:46;;;;;;;4.30;3.90;;;;;;;;;;10232068;28;20161;-77
2022/08/23 23:09:47;;;;;;;4.88;3.60;;;;;;;;;;10240785;28;20138;-79
2022/08/23 23:14:47;;;;;;;4.03;3.50;;;;;;;;;;10246671;28;20782;-79
2022/08/23 23:25:07;;;;;;;4.70;3.70;;;;;;;;;;10246636;28;20480;-79
2022/08/23 23:30:08;;;;;;;3.35;3.05;;;;;;;;;;10241407;28;20371;-81
2022/08/23 23:35:08;;;;;;;4.15;3.70;;;;;;;;;;10224202;28;20110;-78
2022/08/23 23:40:09;;;;;;;4.22;3.83;;;;;;;;;;10237574;28;20127;-80
2022/08/23 23:45:10;;;;;;;4.55;3.47;;;;;;;;;;10239983;28;20132;-80
2022/08/23 23:50:11;;;;;;;4.57;3.83;;;;;;;;;;10249272;28;20137;-78
2022/08/23 23:55:14;;;;;;;4.45;3.90;;;;;;;;;;10258704;28;20051;-75
